createdAt,value
2018-05-17T00:02:20.392Z,7.40
2018-05-17T00:04:56.472Z,9.80
2018-05-17T00:07:33.411Z,9.80
2018-05-17T00:10:09.404Z,9.87
2018-05-17T00:12:45.345Z,11.37
2018-05-17T00:15:21.444Z,11.30
2018-05-17T00:17:57.338Z,11.90
2018-05-17T00:20:33.311Z,11.70
2018-05-17T00:23:09.379Z,10.87
2018-05-17T00:25:45.133Z,10.47
2018-05-17T00:28:20.955Z,10.33
2018-05-17T00:30:57.214Z,10.50
2018-05-17T00:33:33.204Z,10.87
2018-05-17T00:36:09.169Z,11.73
2018-05-17T00:38:45.391Z,12.03
2018-05-17T00:41:22.049Z,15.13
2018-05-17T00:43:58.605Z,12.27
2018-05-17T00:46:35.024Z,10.93
2018-05-17T00:49:11.004Z,11.27
2018-05-17T00:51:46.951Z,12.40
2018-05-17T00:54:23.289Z,11.10
2018-05-17T00:56:59.744Z,10.63
2018-05-17T00:59:36.583Z,13.07
2018-05-17T01:02:12.979Z,11.10
2018-05-17T01:04:49.700Z,14.27
2018-05-17T01:07:25.509Z,10.73
2018-05-17T01:10:01.739Z,12.90
2018-05-17T01:12:39.076Z,11.97
2018-05-17T01:15:14.867Z,11.43
2018-05-17T01:17:50.693Z,13.00
2018-05-17T01:20:26.845Z,10.73
2018-05-17T01:23:02.666Z,15.30
2018-05-17T01:25:38.723Z,13.37
2018-05-17T01:28:14.708Z,13.37
2018-05-17T01:30:50.537Z,16.33
2018-05-17T01:33:26.733Z,13.80
2018-05-17T01:36:02.609Z,15.60
2018-05-17T01:38:39.103Z,13.63
2018-05-17T01:41:15.929Z,17.27
2018-05-17T01:43:52.685Z,16.23
2018-05-17T01:46:29.322Z,16.50
2018-05-17T01:49:05.590Z,17.47
2018-05-17T01:51:41.593Z,14.17
2018-05-17T01:54:17.401Z,19.93
2018-05-17T01:56:53.634Z,15.83
2018-05-17T01:59:30.340Z,14.13
2018-05-17T02:02:06.191Z,17.30
2018-05-17T02:04:43.228Z,19.47
2018-05-17T02:07:19.094Z,18.27
2018-05-17T02:09:54.924Z,20.37
2018-05-17T02:12:31.902Z,15.10
2018-05-17T02:15:08.447Z,18.67
2018-05-17T02:17:44.928Z,15.83
2018-05-17T02:20:21.031Z,17.70
2018-05-17T02:22:57.756Z,15.67
2018-05-17T02:25:33.533Z,15.93
2018-05-17T02:28:10.576Z,15.67
2018-05-17T02:30:46.572Z,16.13
2018-05-17T02:33:22.492Z,18.07
2018-05-17T02:35:58.731Z,18.37
2018-05-17T02:38:34.804Z,22.20
2018-05-17T02:41:10.687Z,18.40
2018-05-17T02:43:47.444Z,21.73
2018-05-17T02:46:23.239Z,24.97
2018-05-17T02:48:59.299Z,27.07
2018-05-17T02:51:36.513Z,24.83
2018-05-17T02:54:12.334Z,25.97
2018-05-17T02:56:49.051Z,26.03
2018-05-17T02:59:25.139Z,25.03
2018-05-17T03:02:00.959Z,29.40
2018-05-17T03:04:37.552Z,26.53
2018-05-17T03:07:13.596Z,29.87
2018-05-17T03:09:49.499Z,25.80
2018-05-17T03:12:26.246Z,28.17
2018-05-17T03:15:02.641Z,31.80
2018-05-17T03:17:38.533Z,32.17
2018-05-17T03:20:14.982Z,30.73
2018-05-17T03:22:51.139Z,30.40
2018-05-17T03:25:27.074Z,28.37
2018-05-17T03:28:04.411Z,27.60
2018-05-17T03:30:40.617Z,33.60
2018-05-17T03:33:16.441Z,28.90
2018-05-17T03:35:52.495Z,29.20
2018-05-17T03:38:28.507Z,33.27
2018-05-17T03:41:04.531Z,29.10
2018-05-17T03:43:40.329Z,29.03
2018-05-17T03:46:17.155Z,28.53
2018-05-17T03:48:53.423Z,31.03
2018-05-17T03:51:29.323Z,26.93
2018-05-17T03:54:06.846Z,29.90
2018-05-17T03:56:43.624Z,25.23
2018-05-17T03:59:19.365Z,25.13
2018-05-17T04:02:06.597Z,23.10
2018-05-17T04:06:00.214Z,30.40
2018-05-17T04:08:36.147Z,24.63
2018-05-17T04:11:12.327Z,23.50
2018-05-17T04:13:48.656Z,29.27
2018-05-17T04:16:25.340Z,28.77
2018-05-17T04:19:01.560Z,24.77
2018-05-17T04:21:37.443Z,24.20
2018-05-17T04:24:13.382Z,29.43
2018-05-17T04:26:49.516Z,26.57
2018-05-17T04:29:26.141Z,20.17
2018-05-17T04:32:02.824Z,25.73
2018-05-17T04:34:39.196Z,20.93
2018-05-17T04:37:15.122Z,25.97
2018-05-17T04:39:51.163Z,20.27
2018-05-17T04:42:27.268Z,19.97
2018-05-17T04:45:03.348Z,19.77
2018-05-17T04:47:39.812Z,22.07
2018-05-17T04:50:15.921Z,21.10
2018-05-17T04:52:52.022Z,18.43
2018-05-17T04:55:27.925Z,22.73
2018-05-17T04:58:04.256Z,21.63
2018-05-17T05:00:40.940Z,19.67
2018-05-17T05:03:17.111Z,19.50
2018-05-17T05:05:53.433Z,22.93
2018-05-17T05:08:29.977Z,24.33
2018-05-17T05:11:06.999Z,19.57
2018-05-17T05:13:43.161Z,22.10
2018-05-17T05:16:19.335Z,29.07
2018-05-17T05:18:55.643Z,23.33
2018-05-17T05:21:31.967Z,22.67
2018-05-17T05:24:07.884Z,21.60
2018-05-17T05:26:43.819Z,22.67
2018-05-17T05:29:21.105Z,23.73
2018-05-17T05:31:57.069Z,21.30
2018-05-17T05:34:33.091Z,21.23
2018-05-17T05:37:09.323Z,16.37
2018-05-17T05:39:45.122Z,16.80
2018-05-17T05:42:21.229Z,21.93
2018-05-17T05:44:57.212Z,19.20
2018-05-17T05:47:34.057Z,19.63
2018-05-17T05:50:10.101Z,17.53
2018-05-17T05:52:46.485Z,20.13
2018-05-17T05:55:23.194Z,22.60
2018-05-17T05:57:59.280Z,18.50
2018-05-17T06:00:35.699Z,19.80
2018-05-17T06:03:11.732Z,17.13
2018-05-17T06:05:47.605Z,17.30
2018-05-17T06:08:23.983Z,19.00
2018-05-17T06:10:59.745Z,21.17
2018-05-17T06:13:37.314Z,19.23
2018-05-17T06:16:13.479Z,19.20
2018-05-17T06:18:49.453Z,20.53
2018-05-17T06:21:26.222Z,19.70
2018-05-17T06:24:03.274Z,18.83
2018-05-17T06:26:39.362Z,24.17
2018-05-17T06:29:16.221Z,19.67
2018-05-17T06:31:52.445Z,19.93
2018-05-17T06:34:28.360Z,18.70
2018-05-17T06:37:04.870Z,23.97
2018-05-17T06:39:41.111Z,16.93
2018-05-17T06:42:17.095Z,14.60
2018-05-17T06:44:53.089Z,17.40
2018-05-17T06:47:29.372Z,16.27
2018-05-17T06:50:06.350Z,18.00
2018-05-17T06:52:42.164Z,17.00
2018-05-17T06:55:19.212Z,17.83
2018-05-17T06:57:55.823Z,20.20
2018-05-17T07:00:31.835Z,17.43
2018-05-17T07:03:08.899Z,21.20
2018-05-17T07:05:46.236Z,21.83
2018-05-17T07:08:22.976Z,18.00
2018-05-17T07:10:59.189Z,18.17
2018-05-17T07:13:35.061Z,19.03
2018-05-17T07:16:10.894Z,19.93
2018-05-17T07:18:47.356Z,14.93
2018-05-17T07:21:23.687Z,20.07
2018-05-17T07:23:59.593Z,16.60
2018-05-17T07:26:35.948Z,20.77
2018-05-17T07:29:12.964Z,15.10
2018-05-17T07:31:49.139Z,21.10
2018-05-17T07:34:25.439Z,16.20
2018-05-17T07:37:01.395Z,14.70
2018-05-17T07:39:37.276Z,18.63
2018-05-17T07:42:13.682Z,15.70
2018-05-17T07:44:50.168Z,21.07
2018-05-17T07:47:26.347Z,18.93
2018-05-17T07:50:02.621Z,16.97
2018-05-17T07:52:39.351Z,20.77
2018-05-17T07:55:15.415Z,21.37
2018-05-17T07:57:51.356Z,14.87
2018-05-17T08:00:27.455Z,17.40
2018-05-17T08:03:04.129Z,19.40
2018-05-17T08:05:40.044Z,21.13
2018-05-17T08:08:16.940Z,16.80
2018-05-17T08:10:53.003Z,17.03
2018-05-17T08:13:28.940Z,15.83
2018-05-17T08:16:05.250Z,16.50
2018-05-17T08:18:41.169Z,19.17
2018-05-17T08:21:17.111Z,17.10
2018-05-17T08:23:53.002Z,15.33
2018-05-17T08:26:29.056Z,16.57
2018-05-17T08:29:04.978Z,21.50
2018-05-17T08:31:41.113Z,16.13
2018-05-17T08:34:18.639Z,18.30
2018-05-17T08:36:54.933Z,16.50
2018-05-17T08:39:31.271Z,15.30
2018-05-17T08:42:07.181Z,18.67
2018-05-17T08:44:44.135Z,15.33
2018-05-17T08:47:20.755Z,16.70
2018-05-17T08:49:57.974Z,18.27
2018-05-17T08:52:33.765Z,19.30
2018-05-17T08:55:11.769Z,22.33
2018-05-17T08:57:47.743Z,18.93
2018-05-17T09:00:24.243Z,22.23
2018-05-17T09:03:00.512Z,18.53
2018-05-17T09:05:37.316Z,21.70
2018-05-17T09:08:13.569Z,23.43
2018-05-17T09:10:49.865Z,21.17
2018-05-17T09:13:26.038Z,22.47
2018-05-17T09:16:02.759Z,18.50
2018-05-17T09:18:38.798Z,19.57
2018-05-17T09:21:15.556Z,19.03
2018-05-17T09:23:51.747Z,19.97
2018-05-17T09:26:29.789Z,17.73
2018-05-17T09:29:06.811Z,15.90
2018-05-17T09:31:42.742Z,23.93
2018-05-17T09:34:19.393Z,20.53
2018-05-17T09:36:55.852Z,17.67
2018-05-17T09:39:38.385Z,20.00
2018-05-17T09:42:14.514Z,25.77
2018-05-17T09:44:50.685Z,28.00
2018-05-17T09:47:27.278Z,24.13
2018-05-17T09:50:03.307Z,25.97
2018-05-17T09:52:39.939Z,23.63
2018-05-17T09:55:16.986Z,20.23
2018-05-17T09:57:54.326Z,20.97
2018-05-17T10:00:31.395Z,23.87
2018-05-17T10:03:07.452Z,18.07
2018-05-17T10:05:43.453Z,24.43
2018-05-17T10:08:20.037Z,25.53
2018-05-17T10:10:56.658Z,24.77
2018-05-17T10:13:33.432Z,19.97
2018-05-17T10:16:09.926Z,19.00
2018-05-17T10:18:46.983Z,16.77
2018-05-17T10:21:22.937Z,18.73
2018-05-17T10:23:59.312Z,19.93
2018-05-17T10:26:35.387Z,19.63
2018-05-17T10:29:15.206Z,22.50
2018-05-17T10:31:51.541Z,21.07
2018-05-17T10:34:27.506Z,17.67
2018-05-17T10:37:04.200Z,21.13
2018-05-17T10:39:41.663Z,18.13
2018-05-17T10:42:17.737Z,19.07
2018-05-17T10:44:54.139Z,23.77
2018-05-17T10:47:30.425Z,19.63
2018-05-17T10:50:07.082Z,21.43
2018-05-17T10:52:43.250Z,24.07
2018-05-17T10:55:20.102Z,24.00
2018-05-17T10:57:56.722Z,21.13
2018-05-17T11:00:32.732Z,19.57
2018-05-17T11:03:08.793Z,25.67
2018-05-17T11:05:44.937Z,24.70
2018-05-17T11:08:21.698Z,23.23
2018-05-17T11:10:58.018Z,22.37
2018-05-17T11:13:34.752Z,26.83
2018-05-17T11:16:11.175Z,28.27
2018-05-17T11:18:47.229Z,24.73
2018-05-17T11:21:23.440Z,23.50
2018-05-17T11:23:59.986Z,25.43
2018-05-17T11:26:36.883Z,21.00
2018-05-17T11:29:12.960Z,19.13
2018-05-17T11:31:49.390Z,22.67
2018-05-17T11:34:25.384Z,23.87
2018-05-17T11:37:01.627Z,22.93
2018-05-17T11:39:38.733Z,24.93
2018-05-17T11:42:15.148Z,23.40
2018-05-17T11:44:51.271Z,27.23
2018-05-17T11:47:27.843Z,21.37
2018-05-17T11:50:04.037Z,19.93
2018-05-17T11:52:40.038Z,25.77
2018-05-17T11:55:16.632Z,31.30
2018-05-17T11:57:53.069Z,25.43
2018-05-17T12:00:29.145Z,22.53
2018-05-17T12:03:06.244Z,25.03
2018-05-17T12:05:42.366Z,25.17
2018-05-17T12:08:18.409Z,23.27
2018-05-17T12:10:55.163Z,28.73
2018-05-17T12:13:31.043Z,29.87
2018-05-17T12:17:09.751Z,21.87
2018-05-17T12:19:45.894Z,27.37
2018-05-17T12:22:21.692Z,27.73
2018-05-17T12:24:59.657Z,25.70
2018-05-17T12:27:37.445Z,25.33
2018-05-17T12:30:13.218Z,24.57
2018-05-17T12:32:50.069Z,24.17
2018-05-17T12:35:27.050Z,26.77
2018-05-17T12:38:03.479Z,24.53
2018-05-17T12:40:39.577Z,22.97
2018-05-17T12:43:15.471Z,28.07
2018-05-17T12:45:51.774Z,23.63
2018-05-17T12:48:27.745Z,21.53
2018-05-17T12:51:03.615Z,26.23
2018-05-17T12:53:39.854Z,23.77
2018-05-17T12:56:15.765Z,22.30
2018-05-17T12:58:52.493Z,24.17
2018-05-17T13:01:29.616Z,24.27
2018-05-17T13:04:05.640Z,24.87
2018-05-17T13:06:42.345Z,26.53
2018-05-17T13:09:18.263Z,26.97
2018-05-17T13:11:54.332Z,23.73
2018-05-17T13:14:31.050Z,27.03
2018-05-17T13:17:07.098Z,21.00
2018-05-17T13:19:43.767Z,21.27
2018-05-17T13:22:20.535Z,26.53
2018-05-17T13:24:57.551Z,25.93
2018-05-17T13:27:33.801Z,23.07
2018-05-17T13:30:12.068Z,21.03
2018-05-17T13:32:48.897Z,24.23
2018-05-17T13:35:25.172Z,24.33
2018-05-17T13:38:01.138Z,23.30
2018-05-17T13:40:37.250Z,21.57
2018-05-17T13:43:13.297Z,16.67
2018-05-17T13:45:49.602Z,28.37
2018-05-17T13:48:26.022Z,19.30
2018-05-17T13:51:03.134Z,20.47
2018-05-17T13:53:39.944Z,16.80
2018-05-17T13:56:16.119Z,19.33
2018-05-17T13:58:52.482Z,19.53
2018-05-17T14:01:29.216Z,25.10
2018-05-17T14:04:05.330Z,16.87
2018-05-17T14:06:42.366Z,19.73
2018-05-17T14:09:20.629Z,19.37
2018-05-17T14:12:00.332Z,18.43
2018-05-17T14:14:37.603Z,21.50
2018-05-17T14:17:13.645Z,19.50
2018-05-17T14:19:49.756Z,22.57
2018-05-17T14:22:25.812Z,16.60
2018-05-17T14:25:02.573Z,19.33
2018-05-17T14:27:38.863Z,24.20
2018-05-17T14:30:14.826Z,15.67
2018-05-17T14:32:50.869Z,20.83
2018-05-17T14:35:28.070Z,19.00
2018-05-17T14:38:04.146Z,24.10
2018-05-17T14:40:40.454Z,17.07
2018-05-17T14:43:17.696Z,21.93
2018-05-17T14:45:53.849Z,22.90
2018-05-17T14:48:29.800Z,21.80
2018-05-17T14:51:06.564Z,17.90
2018-05-17T14:53:42.492Z,24.50
2018-05-17T14:56:18.866Z,20.47
2018-05-17T14:58:55.097Z,20.37
2018-05-17T15:01:32.780Z,18.03
2018-05-17T15:04:08.985Z,15.53
2018-05-17T15:06:46.279Z,21.17
2018-05-17T15:09:24.844Z,19.23
2018-05-17T15:12:00.927Z,16.60
2018-05-17T15:14:48.618Z,16.80
2018-05-17T15:17:29.893Z,19.37
2018-05-17T15:20:08.082Z,20.00
2018-05-17T15:22:44.513Z,18.33
2018-05-17T15:25:20.459Z,16.70
2018-05-17T15:27:58.416Z,20.13
2018-05-17T15:30:34.378Z,26.33
2018-05-17T15:33:11.198Z,27.63
2018-05-17T15:35:47.259Z,20.20
2018-05-17T15:38:23.789Z,17.97
2018-05-17T15:41:01.004Z,23.47
2018-05-17T15:43:36.864Z,18.57
2018-05-17T15:46:13.403Z,17.73
2018-05-17T15:48:51.390Z,21.10
2018-05-17T15:51:28.292Z,19.47
2018-05-17T15:54:04.364Z,18.67
2018-05-17T15:56:41.172Z,13.33
2018-05-17T15:59:17.378Z,19.63
2018-05-17T16:01:53.995Z,23.53
2018-05-17T16:04:31.113Z,19.63
2018-05-17T16:07:08.552Z,20.43
2018-05-17T16:09:49.346Z,18.67
2018-05-17T16:12:25.876Z,19.30
2018-05-17T16:15:03.156Z,15.80
2018-05-17T16:17:41.130Z,21.03
2018-05-17T16:20:17.457Z,20.23
2018-05-17T16:22:54.151Z,16.67
2018-05-17T16:25:31.061Z,16.90
2018-05-17T16:28:07.024Z,17.00
2018-05-17T16:30:43.523Z,22.17
2018-05-17T16:33:20.189Z,17.13
2018-05-17T16:35:57.481Z,15.67
2018-05-17T16:38:35.554Z,20.17
2018-05-17T16:41:11.989Z,22.40
2018-05-17T16:43:48.383Z,19.17
2018-05-17T16:46:24.629Z,15.73
2018-05-17T16:49:01.355Z,20.33
2018-05-17T16:51:39.835Z,18.70
2018-05-17T16:54:16.271Z,19.43
2018-05-17T16:56:52.340Z,17.67
2018-05-17T16:59:32.084Z,15.17
2018-05-17T17:02:13.226Z,14.90
2018-05-17T17:04:49.466Z,16.77
2018-05-17T17:07:26.581Z,16.17
2018-05-17T17:10:03.298Z,19.30
2018-05-17T17:12:39.462Z,16.37
2018-05-17T17:15:15.776Z,18.83
2018-05-17T17:17:52.971Z,20.60
2018-05-17T17:20:29.175Z,15.73
2018-05-17T17:23:07.227Z,18.23
2018-05-17T17:25:43.940Z,14.13
2018-05-17T17:28:22.997Z,20.80
2018-05-17T17:32:23.193Z,18.70
2018-05-17T17:34:59.191Z,23.90
2018-05-17T17:37:35.313Z,18.37
2018-05-17T17:40:11.441Z,18.10
2018-05-17T17:42:48.489Z,22.07
2018-05-17T17:45:24.646Z,17.03
2018-05-17T17:48:00.957Z,19.97
2018-05-17T17:50:37.460Z,15.33
2018-05-17T17:53:13.502Z,17.33
2018-05-17T17:55:50.968Z,16.63
2018-05-17T17:58:27.316Z,24.03
2018-05-17T18:01:03.394Z,23.77
2018-05-17T18:03:40.426Z,19.30
2018-05-17T18:06:17.084Z,19.73
2018-05-17T18:08:53.795Z,20.63
2018-05-17T18:11:29.769Z,19.80
2018-05-17T18:14:05.942Z,22.47
2018-05-17T18:16:41.829Z,15.77
2018-05-17T18:19:18.093Z,20.23
2018-05-17T18:21:54.232Z,23.37
2018-05-17T18:24:30.945Z,19.33
2018-05-17T18:27:07.061Z,18.57
2018-05-17T18:29:43.139Z,18.87
2018-05-17T18:32:19.146Z,21.80
2018-05-17T18:34:55.461Z,19.47
2018-05-17T18:37:32.278Z,22.73
2018-05-17T18:40:08.341Z,18.03
2018-05-17T18:42:44.550Z,27.13
2018-05-17T18:45:20.663Z,17.57
2018-05-17T18:47:56.371Z,21.37
2018-05-17T18:50:32.945Z,20.63
2018-05-17T18:53:09.152Z,23.43
2018-05-17T18:55:45.866Z,21.73
2018-05-17T18:58:21.547Z,22.27
2018-05-17T19:00:57.580Z,24.50
2018-05-17T19:03:34.099Z,20.27
2018-05-17T19:06:10.007Z,21.27
2018-05-17T19:08:46.015Z,22.07
2018-05-17T19:11:23.105Z,17.13
2018-05-17T19:13:59.387Z,19.33
2018-05-17T19:16:36.793Z,17.13
2018-05-17T19:19:13.336Z,22.77
2018-05-17T19:21:49.310Z,18.73
2018-05-17T19:27:15.767Z,30.23
2018-05-17T19:29:51.764Z,20.10
2018-05-17T19:32:28.070Z,18.93
2018-05-17T19:35:03.967Z,14.47
2018-05-17T19:37:39.976Z,23.10
2018-05-17T19:40:16.187Z,15.80
2018-05-17T19:42:51.967Z,17.97
2018-05-17T19:45:27.739Z,16.77
2018-05-17T19:48:03.533Z,17.07
2018-05-17T19:50:40.578Z,24.63
2018-05-17T19:53:16.698Z,16.20
2018-05-17T19:55:52.723Z,15.97
2018-05-17T19:58:29.402Z,18.53
2018-05-17T20:01:05.715Z,18.17
2018-05-17T20:03:41.713Z,20.53
2018-05-17T20:06:17.706Z,22.23
2018-05-17T20:08:54.468Z,20.00
2018-05-17T20:11:30.612Z,24.67
2018-05-17T20:14:06.443Z,27.50
2018-05-17T20:16:42.916Z,24.50
2018-05-17T20:19:18.703Z,19.87
2018-05-17T20:21:55.348Z,19.50
2018-05-17T20:24:31.667Z,23.67
2018-05-17T20:27:08.111Z,19.63
2018-05-17T20:29:44.826Z,18.23
2018-05-17T20:32:21.059Z,27.47
2018-05-17T20:34:57.584Z,19.23
2018-05-17T20:37:34.161Z,27.30
2018-05-17T20:40:10.231Z,20.37
2018-05-17T20:42:46.307Z,19.60
2018-05-17T20:45:22.961Z,27.73
2018-05-17T20:47:59.227Z,15.43
2018-05-17T20:50:35.208Z,23.87
2018-05-17T20:53:11.177Z,27.47
2018-05-17T20:55:47.401Z,20.00
2018-05-17T20:58:24.132Z,23.30
2018-05-17T21:01:00.154Z,21.30
2018-05-17T21:03:36.968Z,16.73
2018-05-17T21:06:12.871Z,16.47
2018-05-17T21:08:48.957Z,17.00
2018-05-17T21:11:25.789Z,20.83
2018-05-17T21:14:02.349Z,22.43
2018-05-17T21:16:38.177Z,12.43
2018-05-17T21:19:14.247Z,20.73
2018-05-17T21:21:50.284Z,20.93
2018-05-17T21:24:26.777Z,25.50
2018-05-17T21:27:03.660Z,21.63
2018-05-17T21:29:39.629Z,25.37
2018-05-17T21:32:16.023Z,23.63
2018-05-17T21:34:52.318Z,20.73
2018-05-17T21:37:28.137Z,25.70
2018-05-17T21:40:03.962Z,25.63
2018-05-17T21:42:39.677Z,22.70
2018-05-17T21:45:15.679Z,23.00
2018-05-17T21:47:52.720Z,19.07
2018-05-17T21:50:28.634Z,20.40
2018-05-17T21:53:05.034Z,27.03
2018-05-17T21:55:41.121Z,20.17
2018-05-17T21:58:18.473Z,31.10
2018-05-17T22:00:55.329Z,25.47
2018-05-17T22:03:31.478Z,20.70
2018-05-17T22:06:07.374Z,21.80
2018-05-17T22:08:43.223Z,22.87
2018-05-17T22:11:19.569Z,19.97
2018-05-17T22:13:55.433Z,26.07
2018-05-17T22:16:32.064Z,26.60
2018-05-17T22:19:08.242Z,18.47
2018-05-17T22:21:44.265Z,20.03
2018-05-17T22:24:21.607Z,19.60
2018-05-17T22:26:58.106Z,14.07
2018-05-17T22:29:33.910Z,15.63
2018-05-17T22:32:09.711Z,14.73
2018-05-17T22:34:45.837Z,16.97
2018-05-17T22:37:22.022Z,18.83
2018-05-17T22:39:58.112Z,16.70
2018-05-17T22:42:34.270Z,19.10
2018-05-17T22:45:10.039Z,15.27
2018-05-17T22:47:47.341Z,19.00
2018-05-17T22:50:23.553Z,19.07
2018-05-17T22:53:11.073Z,22.27
2018-05-17T22:55:48.062Z,19.83
2018-05-17T22:58:34.839Z,20.90
2018-05-17T23:01:11.696Z,19.47
2018-05-17T23:03:48.691Z,20.97
2018-05-17T23:06:25.747Z,17.30
2018-05-17T23:09:01.743Z,15.50
2018-05-17T23:11:37.451Z,17.10
2018-05-17T23:14:13.714Z,16.07
2018-05-17T23:16:49.471Z,19.03
2018-05-17T23:19:25.354Z,18.27
2018-05-17T23:22:01.633Z,20.73
2018-05-17T23:24:37.472Z,21.83
2018-05-17T23:27:15.110Z,18.83
2018-05-17T23:29:51.102Z,19.93
2018-05-17T23:32:27.186Z,19.80
2018-05-17T23:35:03.419Z,15.30
2018-05-17T23:37:39.270Z,16.53
2018-05-17T23:40:25.815Z,15.97
2018-05-17T23:43:03.650Z,12.73
2018-05-17T23:45:44.216Z,17.00
2018-05-17T23:48:22.431Z,13.73
2018-05-17T23:51:02.705Z,18.63
2018-05-17T23:53:41.551Z,15.00
2018-05-17T23:56:19.077Z,16.63
2018-05-17T23:59:04.498Z,19.33
